sensor_id;sensor_type;location;lat;lon;timestamp;temperature;humidity
216;HTU21D;45701;48.81287245;9.14186865;2022-10-13T00:01:51;12.26;88.11
216;HTU21D;45701;48.81287245;9.14186865;2022-10-13T00:04:18;12.46;86.61
216;HTU21D;45701;48.81287245;9.14186865;2022-10-13T00:06:46;12.41;87.03
216;HTU21D;45701;48.81287245;9.14186865;2022-10-13T00:09:13;12.36;86.35
216;HTU21D;45701;48.81287245;9.14186865;2022-10-13T00:11:40;12.27;86.00
216;HTU21D;45701;48.81287245;9.14186865;2022-10-13T00:14:07;12.36;87.22
216;HTU21D;45701;48.81287245;9.14186865;2022-10-13T00:16:34;12.59;85.94
216;HTU21D;45701;48.81287245;9.14186865;2022-10-13T00:19:01;12.19;88.28
216;HTU21D;45701;48.81287245;9.14186865;2022-10-13T00:21:28;12.26;89.89
216;HTU21D;45701;48.81287245;9.14186865;2022-10-13T00:23:56;12.17;88.14
216;HTU21D;45701;48.81287245;9.14186865;2022-10-13T00:26:24;12.18;89.66
216;HTU21D;45701;48.81287245;9.14186865;2022-10-13T00:28:51;12.31;88.77
216;HTU21D;45701;48.81287245;9.14186865;2022-10-13T00:31:19;12.23;87.15
216;HTU21D;45701;48.81287245;9.14186865;2022-10-13T00:33:46;12.16;89.21
216;HTU21D;45701;48.81287245;9.14186865;2022-10-13T00:36:14;12.30;87.27
216;HTU21D;45701;48.81287245;9.14186865;2022-10-13T00:38:41;12.14;87.43
216;HTU21D;45701;48.81287245;9.14186865;2022-10-13T00:41:09;12.11;88.52
216;HTU21D;45701;48.81287245;9.14186865;2022-10-13T00:43:55;12.13;87.86
216;HTU21D;45701;48.81287245;9.14186865;2022-10-13T00:46:24;12.27;87.48
216;HTU21D;45701;48.81287245;9.14186865;2022-10-13T00:48:57;12.36;86.38
216;HTU21D;45701;48.81287245;9.14186865;2022-10-13T00:51:27;12.64;83.84
216;HTU21D;45701;48.81287245;9.14186865;2022-10-13T00:53:55;12.57;84.26
216;HTU21D;45701;48.81287245;9.14186865;2022-10-13T00:56:25;12.71;83.44
216;HTU21D;45701;48.81287245;9.14186865;2022-10-13T00:58:54;12.55;84.03
216;HTU21D;45701;48.81287245;9.14186865;2022-10-13T01:01:21;12.26;85.03
216;HTU21D;45701;48.81287245;9.14186865;2022-10-13T01:03:48;12.66;83.09
216;HTU21D;45701;48.81287245;9.14186865;2022-10-13T01:06:15;12.57;83.80
216;HTU21D;45701;48.81287245;9.14186865;2022-10-13T01:08:42;12.16;84.02
216;HTU21D;45701;48.81287245;9.14186865;2022-10-13T01:14:12;11.97;86.15
216;HTU21D;45701;48.81287245;9.14186865;2022-10-13T01:16:45;12.27;85.05
216;HTU21D;45701;48.81287245;9.14186865;2022-10-13T01:22:26;11.93;85.93
216;HTU21D;45701;48.81287245;9.14186865;2022-10-13T01:25:03;12.11;84.97
216;HTU21D;45701;48.81287245;9.14186865;2022-10-13T01:27:55;12.23;84.06
216;HTU21D;45701;48.81287245;9.14186865;2022-10-13T01:30:29;12.28;84.12
216;HTU21D;45701;48.81287245;9.14186865;2022-10-13T01:33:20;12.26;84.64
216;HTU21D;45701;48.81287245;9.14186865;2022-10-13T01:35:55;12.31;83.20
216;HTU21D;45701;48.81287245;9.14186865;2022-10-13T01:38:30;12.31;83.10
216;HTU21D;45701;48.81287245;9.14186865;2022-10-13T01:41:02;12.31;82.61
216;HTU21D;45701;48.81287245;9.14186865;2022-10-13T01:43:35;12.36;83.21
216;HTU21D;45701;48.81287245;9.14186865;2022-10-13T01:46:07;11.93;84.39
216;HTU21D;45701;48.81287245;9.14186865;2022-10-13T01:48:37;11.98;86.00
216;HTU21D;45701;48.81287245;9.14186865;2022-10-13T01:51:06;11.92;85.16
216;HTU21D;45701;48.81287245;9.14186865;2022-10-13T01:53:35;11.91;84.47
216;HTU21D;45701;48.81287245;9.14186865;2022-10-13T01:56:02;12.00;84.91
216;HTU21D;45701;48.81287245;9.14186865;2022-10-13T01:58:31;12.08;83.84
216;HTU21D;45701;48.81287245;9.14186865;2022-10-13T02:01:07;11.97;83.94
216;HTU21D;45701;48.81287245;9.14186865;2022-10-13T02:03:42;11.83;84.89
216;HTU21D;45701;48.81287245;9.14186865;2022-10-13T02:06:17;12.05;83.57
216;HTU21D;45701;48.81287245;9.14186865;2022-10-13T02:08:54;11.97;83.60
216;HTU21D;45701;48.81287245;9.14186865;2022-10-13T02:11:22;12.07;83.50
216;HTU21D;45701;48.81287245;9.14186865;2022-10-13T02:13:53;12.14;82.91
216;HTU21D;45701;48.81287245;9.14186865;2022-10-13T02:16:29;12.11;82.37
216;HTU21D;45701;48.81287245;9.14186865;2022-10-13T02:18:57;12.06;82.64
216;HTU21D;45701;48.81287245;9.14186865;2022-10-13T02:21:24;12.27;81.98
216;HTU21D;45701;48.81287245;9.14186865;2022-10-13T02:23:53;12.12;82.73
216;HTU21D;45701;48.81287245;9.14186865;2022-10-13T02:26:20;12.06;82.44
216;HTU21D;45701;48.81287245;9.14186865;2022-10-13T02:28:50;12.00;84.08
216;HTU21D;45701;48.81287245;9.14186865;2022-10-13T02:31:17;11.97;84.47
216;HTU21D;45701;48.81287245;9.14186865;2022-10-13T02:33:45;12.29;83.63
216;HTU21D;45701;48.81287245;9.14186865;2022-10-13T02:36:12;12.15;83.68
216;HTU21D;45701;48.81287245;9.14186865;2022-10-13T02:38:38;11.75;86.61
216;HTU21D;45701;48.81287245;9.14186865;2022-10-13T02:41:05;11.84;87.96
216;HTU21D;45701;48.81287245;9.14186865;2022-10-13T02:43:32;12.05;86.86
216;HTU21D;45701;48.81287245;9.14186865;2022-10-13T02:46:01;12.20;86.05
216;HTU21D;45701;48.81287245;9.14186865;2022-10-13T02:48:28;12.14;86.16
216;HTU21D;45701;48.81287245;9.14186865;2022-10-13T02:50:56;11.85;87.31
216;HTU21D;45701;48.81287245;9.14186865;2022-10-13T02:53:23;12.17;86.74
216;HTU21D;45701;48.81287245;9.14186865;2022-10-13T02:55:49;12.30;84.65
216;HTU21D;45701;48.81287245;9.14186865;2022-10-13T02:58:16;12.21;85.22
216;HTU21D;45701;48.81287245;9.14186865;2022-10-13T03:00:43;12.15;85.45
216;HTU21D;45701;48.81287245;9.14186865;2022-10-13T03:03:10;12.23;85.74
216;HTU21D;45701;48.81287245;9.14186865;2022-10-13T03:05:37;12.12;85.59
216;HTU21D;45701;48.81287245;9.14186865;2022-10-13T03:08:05;12.16;85.53
216;HTU21D;45701;48.81287245;9.14186865;2022-10-13T03:10:32;12.01;86.85
216;HTU21D;45701;48.81287245;9.14186865;2022-10-13T03:12:59;12.27;86.26
216;HTU21D;45701;48.81287245;9.14186865;2022-10-13T03:15:26;12.40;85.54
216;HTU21D;45701;48.81287245;9.14186865;2022-10-13T03:17:56;12.41;86.41
216;HTU21D;45701;48.81287245;9.14186865;2022-10-13T03:20:22;12.38;87.08
216;HTU21D;45701;48.81287245;9.14186865;2022-10-13T03:22:49;12.20;87.64
216;HTU21D;45701;48.81287245;9.14186865;2022-10-13T03:25:17;12.40;87.96
216;HTU21D;45701;48.81287245;9.14186865;2022-10-13T03:27:44;12.51;87.57
216;HTU21D;45701;48.81287245;9.14186865;2022-10-13T03:30:11;12.41;87.86
216;HTU21D;45701;48.81287245;9.14186865;2022-10-13T03:32:39;12.49;87.93
216;HTU21D;45701;48.81287245;9.14186865;2022-10-13T03:35:06;12.34;88.77
216;HTU21D;45701;48.81287245;9.14186865;2022-10-13T03:37:33;12.42;89.02
216;HTU21D;45701;48.81287245;9.14186865;2022-10-13T03:40:00;12.31;88.59
216;HTU21D;45701;48.81287245;9.14186865;2022-10-13T03:42:28;12.23;89.94
216;HTU21D;45701;48.81287245;9.14186865;2022-10-13T03:44:55;12.61;88.13
216;HTU21D;45701;48.81287245;9.14186865;2022-10-13T03:47:21;12.16;89.02
216;HTU21D;45701;48.81287245;9.14186865;2022-10-13T03:49:48;12.19;89.25
216;HTU21D;45701;48.81287245;9.14186865;2022-10-13T03:52:15;12.08;90.44
216;HTU21D;45701;48.81287245;9.14186865;2022-10-13T03:54:41;12.32;89.22
216;HTU21D;45701;48.81287245;9.14186865;2022-10-13T03:57:08;12.14;90.10
216;HTU21D;45701;48.81287245;9.14186865;2022-10-13T03:59:38;12.49;89.31
216;HTU21D;45701;48.81287245;9.14186865;2022-10-13T04:02:05;12.52;88.21
216;HTU21D;45701;48.81287245;9.14186865;2022-10-13T04:04:32;12.33;89.34
216;HTU21D;45701;48.81287245;9.14186865;2022-10-13T04:06:59;12.22;90.21
216;HTU21D;45701;48.81287245;9.14186865;2022-10-13T04:09:26;12.43;90.32
216;HTU21D;45701;48.81287245;9.14186865;2022-10-13T04:11:53;12.61;89.11
216;HTU21D;45701;48.81287245;9.14186865;2022-10-13T04:14:20;12.45;89.86
216;HTU21D;45701;48.81287245;9.14186865;2022-10-13T04:16:48;12.26;91.13
216;HTU21D;45701;48.81287245;9.14186865;2022-10-13T04:19:15;12.25;91.47
216;HTU21D;45701;48.81287245;9.14186865;2022-10-13T04:21:42;12.34;91.82
216;HTU21D;45701;48.81287245;9.14186865;2022-10-13T04:24:11;12.66;89.60
216;HTU21D;45701;48.81287245;9.14186865;2022-10-13T04:26:38;12.48;89.68
216;HTU21D;45701;48.81287245;9.14186865;2022-10-13T04:29:08;13.00;86.87
216;HTU21D;45701;48.81287245;9.14186865;2022-10-13T04:31:35;12.95;86.58
216;HTU21D;45701;48.81287245;9.14186865;2022-10-13T04:34:03;12.66;87.83
216;HTU21D;45701;48.81287245;9.14186865;2022-10-13T04:36:30;12.56;89.35
216;HTU21D;45701;48.81287245;9.14186865;2022-10-13T04:38:57;12.62;88.64
216;HTU21D;45701;48.81287245;9.14186865;2022-10-13T04:41:23;12.56;88.96
216;HTU21D;45701;48.81287245;9.14186865;2022-10-13T04:43:51;12.92;87.33
216;HTU21D;45701;48.81287245;9.14186865;2022-10-13T04:46:20;12.99;87.04
216;HTU21D;45701;48.81287245;9.14186865;2022-10-13T04:48:48;12.92;86.77
216;HTU21D;45701;48.81287245;9.14186865;2022-10-13T04:51:19;12.85;88.22
216;HTU21D;45701;48.81287245;9.14186865;2022-10-13T04:53:46;12.94;87.14
216;HTU21D;45701;48.81287245;9.14186865;2022-10-13T04:56:14;12.69;88.12
216;HTU21D;45701;48.81287245;9.14186865;2022-10-13T04:58:42;12.51;89.73
216;HTU21D;45701;48.81287245;9.14186865;2022-10-13T05:01:12;12.64;89.53
216;HTU21D;45701;48.81287245;9.14186865;2022-10-13T05:03:40;12.66;89.47
216;HTU21D;45701;48.81287245;9.14186865;2022-10-13T05:06:12;12.56;90.32
216;HTU21D;45701;48.81287245;9.14186865;2022-10-13T05:08:40;12.87;87.99
216;HTU21D;45701;48.81287245;9.14186865;2022-10-13T05:11:09;12.64;89.04
216;HTU21D;45701;48.81287245;9.14186865;2022-10-13T05:13:36;12.63;88.91
216;HTU21D;45701;48.81287245;9.14186865;2022-10-13T05:16:07;12.99;87.84
216;HTU21D;45701;48.81287245;9.14186865;2022-10-13T05:18:34;12.78;88.76
216;HTU21D;45701;48.81287245;9.14186865;2022-10-13T05:21:06;12.67;89.42
216;HTU21D;45701;48.81287245;9.14186865;2022-10-13T05:23:35;12.70;89.11
216;HTU21D;45701;48.81287245;9.14186865;2022-10-13T05:26:05;12.38;90.61
216;HTU21D;45701;48.81287245;9.14186865;2022-10-13T05:28:32;12.46;91.65
216;HTU21D;45701;48.81287245;9.14186865;2022-10-13T05:31:08;12.53;91.13
216;HTU21D;45701;48.81287245;9.14186865;2022-10-13T05:33:35;12.47;91.53
216;HTU21D;45701;48.81287245;9.14186865;2022-10-13T05:36:03;12.66;90.86
216;HTU21D;45701;48.81287245;9.14186865;2022-10-13T05:38:31;12.97;89.11
216;HTU21D;45701;48.81287245;9.14186865;2022-10-13T05:41:01;13.08;88.62
216;HTU21D;45701;48.81287245;9.14186865;2022-10-13T05:43:30;12.97;88.47
216;HTU21D;45701;48.81287245;9.14186865;2022-10-13T05:45:58;13.17;88.06
216;HTU21D;45701;48.81287245;9.14186865;2022-10-13T05:48:27;12.85;88.40
216;HTU21D;45701;48.81287245;9.14186865;2022-10-13T05:50:56;12.46;90.91
216;HTU21D;45701;48.81287245;9.14186865;2022-10-13T05:53:27;12.49;92.20
216;HTU21D;45701;48.81287245;9.14186865;2022-10-13T05:55:55;12.89;90.52
216;HTU21D;45701;48.81287245;9.14186865;2022-10-13T05:58:23;13.02;89.09
216;HTU21D;45701;48.81287245;9.14186865;2022-10-13T06:00:51;13.16;88.15
216;HTU21D;45701;48.81287245;9.14186865;2022-10-13T06:03:21;13.10;88.55
216;HTU21D;45701;48.81287245;9.14186865;2022-10-13T06:05:48;13.24;87.74
216;HTU21D;45701;48.81287245;9.14186865;2022-10-13T06:08:15;13.10;88.59
216;HTU21D;45701;48.81287245;9.14186865;2022-10-13T06:10:43;13.35;87.17
216;HTU21D;45701;48.81287245;9.14186865;2022-10-13T06:13:10;13.31;86.86
216;HTU21D;45701;48.81287245;9.14186865;2022-10-13T06:15:37;13.14;87.89
216;HTU21D;45701;48.81287245;9.14186865;2022-10-13T06:18:07;13.14;88.07
216;HTU21D;45701;48.81287245;9.14186865;2022-10-13T06:20:35;13.19;88.67
216;HTU21D;45701;48.81287245;9.14186865;2022-10-13T06:23:02;13.39;87.61
216;HTU21D;45701;48.81287245;9.14186865;2022-10-13T06:25:30;13.54;86.40
216;HTU21D;45701;48.81287245;9.14186865;2022-10-13T06:27:57;13.65;85.61
216;HTU21D;45701;48.81287245;9.14186865;2022-10-13T06:30:25;13.59;86.03
216;HTU21D;45701;48.81287245;9.14186865;2022-10-13T06:32:52;13.41;87.06
216;HTU21D;45701;48.81287245;9.14186865;2022-10-13T06:35:21;13.56;86.46
216;HTU21D;45701;48.81287245;9.14186865;2022-10-13T06:37:48;13.45;87.39
216;HTU21D;45701;48.81287245;9.14186865;2022-10-13T06:40:15;13.60;86.96
216;HTU21D;45701;48.81287245;9.14186865;2022-10-13T06:42:41;13.69;86.51
216;HTU21D;45701;48.81287245;9.14186865;2022-10-13T06:45:09;13.56;86.33
216;HTU21D;45701;48.81287245;9.14186865;2022-10-13T06:47:39;13.25;88.45
216;HTU21D;45701;48.81287245;9.14186865;2022-10-13T06:50:06;13.41;88.99
216;HTU21D;45701;48.81287245;9.14186865;2022-10-13T06:52:34;13.53;87.86
216;HTU21D;45701;48.81287245;9.14186865;2022-10-13T06:55:01;13.70;87.47
216;HTU21D;45701;48.81287245;9.14186865;2022-10-13T06:57:28;13.68;87.02
216;HTU21D;45701;48.81287245;9.14186865;2022-10-13T06:59:56;13.54;87.56
216;HTU21D;45701;48.81287245;9.14186865;2022-10-13T07:02:22;13.37;88.31
216;HTU21D;45701;48.81287245;9.14186865;2022-10-13T07:04:49;13.46;88.89
216;HTU21D;45701;48.81287245;9.14186865;2022-10-13T07:07:17;13.71;87.22
216;HTU21D;45701;48.81287245;9.14186865;2022-10-13T07:09:45;13.73;86.61
216;HTU21D;45701;48.81287245;9.14186865;2022-10-13T07:12:12;13.61;87.74
216;HTU21D;45701;48.81287245;9.14186865;2022-10-13T07:14:38;13.62;87.31
216;HTU21D;45701;48.81287245;9.14186865;2022-10-13T07:17:05;13.52;87.77
216;HTU21D;45701;48.81287245;9.14186865;2022-10-13T07:19:32;13.53;88.24
216;HTU21D;45701;48.81287245;9.14186865;2022-10-13T07:21:59;13.59;87.48
216;HTU21D;45701;48.81287245;9.14186865;2022-10-13T07:24:26;13.67;87.64
216;HTU21D;45701;48.81287245;9.14186865;2022-10-13T07:26:54;13.68;87.64
216;HTU21D;45701;48.81287245;9.14186865;2022-10-13T07:29:20;13.46;88.68
216;HTU21D;45701;48.81287245;9.14186865;2022-10-13T07:31:47;13.55;88.64
216;HTU21D;45701;48.81287245;9.14186865;2022-10-13T07:34:14;13.58;88.73
216;HTU21D;45701;48.81287245;9.14186865;2022-10-13T07:36:41;13.64;89.21
216;HTU21D;45701;48.81287245;9.14186865;2022-10-13T07:39:08;13.96;87.06
216;HTU21D;45701;48.81287245;9.14186865;2022-10-13T07:41:35;14.01;86.22
216;HTU21D;45701;48.81287245;9.14186865;2022-10-13T07:44:04;14.22;85.88
216;HTU21D;45701;48.81287245;9.14186865;2022-10-13T07:46:30;14.06;86.26
216;HTU21D;45701;48.81287245;9.14186865;2022-10-13T07:48:57;14.25;85.19
216;HTU21D;45701;48.81287245;9.14186865;2022-10-13T07:51:24;14.55;83.68
216;HTU21D;45701;48.81287245;9.14186865;2022-10-13T07:53:51;14.58;82.89
216;HTU21D;45701;48.81287245;9.14186865;2022-10-13T07:56:17;14.44;83.82
216;HTU21D;45701;48.81287245;9.14186865;2022-10-13T07:58:46;14.43;85.14
216;HTU21D;45701;48.81287245;9.14186865;2022-10-13T08:01:14;14.35;84.87
216;HTU21D;45701;48.81287245;9.14186865;2022-10-13T08:03:42;14.30;84.19
216;HTU21D;45701;48.81287245;9.14186865;2022-10-13T08:06:15;14.51;84.91
216;HTU21D;45701;48.81287245;9.14186865;2022-10-13T08:08:41;14.69;83.00
216;HTU21D;45701;48.81287245;9.14186865;2022-10-13T08:11:13;14.44;82.46
216;HTU21D;45701;48.81287245;9.14186865;2022-10-13T08:13:40;14.27;84.32
216;HTU21D;45701;48.81287245;9.14186865;2022-10-13T08:16:12;14.37;84.44
216;HTU21D;45701;48.81287245;9.14186865;2022-10-13T08:18:40;14.18;83.74
216;HTU21D;45701;48.81287245;9.14186865;2022-10-13T08:21:08;14.26;83.75
216;HTU21D;45701;48.81287245;9.14186865;2022-10-13T08:23:37;14.51;83.06
216;HTU21D;45701;48.81287245;9.14186865;2022-10-13T08:26:04;14.42;82.85
216;HTU21D;45701;48.81287245;9.14186865;2022-10-13T08:28:32;14.56;83.39
216;HTU21D;45701;48.81287245;9.14186865;2022-10-13T08:30:58;14.65;83.10
216;HTU21D;45701;48.81287245;9.14186865;2022-10-13T08:33:25;14.82;82.17
216;HTU21D;45701;48.81287245;9.14186865;2022-10-13T08:35:53;15.04;81.16
216;HTU21D;45701;48.81287245;9.14186865;2022-10-13T08:38:25;15.13;80.74
216;HTU21D;45701;48.81287245;9.14186865;2022-10-13T08:40:51;15.33;78.90
216;HTU21D;45701;48.81287245;9.14186865;2022-10-13T08:43:20;15.29;79.77
216;HTU21D;45701;48.81287245;9.14186865;2022-10-13T08:45:48;15.42;79.06
216;HTU21D;45701;48.81287245;9.14186865;2022-10-13T08:48:18;15.46;79.07
216;HTU21D;45701;48.81287245;9.14186865;2022-10-13T08:50:48;15.53;78.27
216;HTU21D;45701;48.81287245;9.14186865;2022-10-13T08:53:23;15.71;76.39
216;HTU21D;45701;48.81287245;9.14186865;2022-10-13T08:55:55;15.49;76.18
216;HTU21D;45701;48.81287245;9.14186865;2022-10-13T08:58:24;15.47;77.71
216;HTU21D;45701;48.81287245;9.14186865;2022-10-13T09:00:59;15.49;77.39
216;HTU21D;45701;48.81287245;9.14186865;2022-10-13T09:03:27;15.58;77.11
216;HTU21D;45701;48.81287245;9.14186865;2022-10-13T09:06:04;15.73;75.94
216;HTU21D;45701;48.81287245;9.14186865;2022-10-13T09:08:39;15.70;76.98
216;HTU21D;45701;48.81287245;9.14186865;2022-10-13T09:11:10;15.67;74.44
216;HTU21D;45701;48.81287245;9.14186865;2022-10-13T09:13:37;15.53;76.48
216;HTU21D;45701;48.81287245;9.14186865;2022-10-13T09:16:04;15.59;76.47
216;HTU21D;45701;48.81287245;9.14186865;2022-10-13T09:18:32;15.86;75.00
216;HTU21D;45701;48.81287245;9.14186865;2022-10-13T09:21:13;15.88;75.38
216;HTU21D;45701;48.81287245;9.14186865;2022-10-13T09:23:42;15.82;75.29
216;HTU21D;45701;48.81287245;9.14186865;2022-10-13T09:26:15;15.98;74.46
216;HTU21D;45701;48.81287245;9.14186865;2022-10-13T09:28:43;15.95;73.85
216;HTU21D;45701;48.81287245;9.14186865;2022-10-13T09:31:14;15.93;75.70
216;HTU21D;45701;48.81287245;9.14186865;2022-10-13T09:33:42;15.86;74.53
216;HTU21D;45701;48.81287245;9.14186865;2022-10-13T09:36:11;16.01;73.70
216;HTU21D;45701;48.81287245;9.14186865;2022-10-13T09:38:40;16.03;72.65
216;HTU21D;45701;48.81287245;9.14186865;2022-10-13T09:41:15;16.05;72.95
216;HTU21D;45701;48.81287245;9.14186865;2022-10-13T09:43:55;16.18;72.04
216;HTU21D;45701;48.81287245;9.14186865;2022-10-13T09:46:30;15.87;73.54
216;HTU21D;45701;48.81287245;9.14186865;2022-10-13T09:49:01;16.01;74.11
216;HTU21D;45701;48.81287245;9.14186865;2022-10-13T09:51:35;15.89;73.43
216;HTU21D;45701;48.81287245;9.14186865;2022-10-13T09:54:37;16.12;75.17
216;HTU21D;45701;48.81287245;9.14186865;2022-10-13T09:57:14;16.15;74.51
216;HTU21D;45701;48.81287245;9.14186865;2022-10-13T09:59:45;16.15;75.96
216;HTU21D;45701;48.81287245;9.14186865;2022-10-13T10:02:18;16.07;75.43
216;HTU21D;45701;48.81287245;9.14186865;2022-10-13T10:04:46;16.03;75.62
216;HTU21D;45701;48.81287245;9.14186865;2022-10-13T10:07:17;16.19;74.04
216;HTU21D;45701;48.81287245;9.14186865;2022-10-13T10:09:48;16.07;73.98
216;HTU21D;45701;48.81287245;9.14186865;2022-10-13T10:12:20;16.01;74.60
216;HTU21D;45701;48.81287245;9.14186865;2022-10-13T10:14:48;15.89;74.52
216;HTU21D;45701;48.81287245;9.14186865;2022-10-13T10:17:19;15.93;74.83
216;HTU21D;45701;48.81287245;9.14186865;2022-10-13T10:19:57;15.93;74.22
216;HTU21D;45701;48.81287245;9.14186865;2022-10-13T10:22:35;15.95;75.47
216;HTU21D;45701;48.81287245;9.14186865;2022-10-13T10:25:14;16.08;75.89
216;HTU21D;45701;48.81287245;9.14186865;2022-10-13T10:27:53;15.96;75.49
216;HTU21D;45701;48.81287245;9.14186865;2022-10-13T10:30:23;16.01;74.71
216;HTU21D;45701;48.81287245;9.14186865;2022-10-13T10:32:52;16.18;75.13
216;HTU21D;45701;48.81287245;9.14186865;2022-10-13T10:35:36;16.25;75.18
216;HTU21D;45701;48.81287245;9.14186865;2022-10-13T10:38:16;16.31;74.83
216;HTU21D;45701;48.81287245;9.14186865;2022-10-13T10:40:49;16.27;74.64
216;HTU21D;45701;48.81287245;9.14186865;2022-10-13T10:43:37;16.45;74.59
216;HTU21D;45701;48.81287245;9.14186865;2022-10-13T10:46:15;16.58;74.11
216;HTU21D;45701;48.81287245;9.14186865;2022-10-13T10:48:44;16.57;72.05
216;HTU21D;45701;48.81287245;9.14186865;2022-10-13T10:51:13;16.37;72.90
216;HTU21D;45701;48.81287245;9.14186865;2022-10-13T10:53:51;16.69;71.81
216;HTU21D;45701;48.81287245;9.14186865;2022-10-13T10:56:25;16.73;71.67
216;HTU21D;45701;48.81287245;9.14186865;2022-10-13T10:59:10;16.43;72.89
216;HTU21D;45701;48.81287245;9.14186865;2022-10-13T11:01:47;16.28;72.71
216;HTU21D;45701;48.81287245;9.14186865;2022-10-13T11:04:38;16.36;73.00
216;HTU21D;45701;48.81287245;9.14186865;2022-10-13T11:07:10;16.51;73.38
216;HTU21D;45701;48.81287245;9.14186865;2022-10-13T11:09:59;16.44;72.12
216;HTU21D;45701;48.81287245;9.14186865;2022-10-13T11:12:45;16.44;73.45
216;HTU21D;45701;48.81287245;9.14186865;2022-10-13T11:15:23;16.59;72.13
216;HTU21D;45701;48.81287245;9.14186865;2022-10-13T11:17:51;16.52;72.87
216;HTU21D;45701;48.81287245;9.14186865;2022-10-13T11:20:53;16.55;71.02
216;HTU21D;45701;48.81287245;9.14186865;2022-10-13T11:23:31;16.79;70.47
216;HTU21D;45701;48.81287245;9.14186865;2022-10-13T11:26:23;16.70;70.32
216;HTU21D;45701;48.81287245;9.14186865;2022-10-13T11:28:53;16.75;71.00
216;HTU21D;45701;48.81287245;9.14186865;2022-10-13T11:31:27;16.98;71.08
216;HTU21D;45701;48.81287245;9.14186865;2022-10-13T11:33:56;16.74;71.29
216;HTU21D;45701;48.81287245;9.14186865;2022-10-13T11:36:48;16.57;71.64
216;HTU21D;45701;48.81287245;9.14186865;2022-10-13T11:46:00;16.58;72.18
216;HTU21D;45701;48.81287245;9.14186865;2022-10-13T11:48:55;16.59;72.28
216;HTU21D;45701;48.81287245;9.14186865;2022-10-13T11:51:31;16.65;71.93
216;HTU21D;45701;48.81287245;9.14186865;2022-10-13T11:54:09;17.19;69.45
216;HTU21D;45701;48.81287245;9.14186865;2022-10-13T11:56:44;17.40;69.50
216;HTU21D;45701;48.81287245;9.14186865;2022-10-13T11:59:20;17.40;68.18
216;HTU21D;45701;48.81287245;9.14186865;2022-10-13T12:01:52;17.46;67.66
216;HTU21D;45701;48.81287245;9.14186865;2022-10-13T12:04:21;17.53;69.08
216;HTU21D;45701;48.81287245;9.14186865;2022-10-13T12:06:54;17.72;67.72
216;HTU21D;45701;48.81287245;9.14186865;2022-10-13T12:09:22;17.74;68.86
216;HTU21D;45701;48.81287245;9.14186865;2022-10-13T12:11:56;17.68;68.28
216;HTU21D;45701;48.81287245;9.14186865;2022-10-13T12:14:26;17.82;67.89
216;HTU21D;45701;48.81287245;9.14186865;2022-10-13T12:16:56;17.84;67.10
216;HTU21D;45701;48.81287245;9.14186865;2022-10-13T12:19:25;17.95;67.30
216;HTU21D;45701;48.81287245;9.14186865;2022-10-13T12:21:54;17.78;68.59
216;HTU21D;45701;48.81287245;9.14186865;2022-10-13T12:24:21;17.52;68.04
216;HTU21D;45701;48.81287245;9.14186865;2022-10-13T12:26:48;17.56;67.01
216;HTU21D;45701;48.81287245;9.14186865;2022-10-13T12:29:16;17.96;66.59
216;HTU21D;45701;48.81287245;9.14186865;2022-10-13T12:31:46;18.20;66.87
216;HTU21D;45701;48.81287245;9.14186865;2022-10-13T12:34:19;18.46;65.12
216;HTU21D;45701;48.81287245;9.14186865;2022-10-13T12:36:55;18.69;63.07
216;HTU21D;45701;48.81287245;9.14186865;2022-10-13T12:39:23;18.48;63.59
216;HTU21D;45701;48.81287245;9.14186865;2022-10-13T12:41:51;18.22;63.63
216;HTU21D;45701;48.81287245;9.14186865;2022-10-13T12:44:20;18.12;64.33
216;HTU21D;45701;48.81287245;9.14186865;2022-10-13T12:46:49;18.24;65.25
216;HTU21D;45701;48.81287245;9.14186865;2022-10-13T12:49:19;18.38;63.44
216;HTU21D;45701;48.81287245;9.14186865;2022-10-13T12:51:49;18.22;63.82
216;HTU21D;45701;48.81287245;9.14186865;2022-10-13T12:54:28;17.99;61.79
216;HTU21D;45701;48.81287245;9.14186865;2022-10-13T12:56:58;17.92;65.35
216;HTU21D;45701;48.81287245;9.14186865;2022-10-13T12:59:27;18.04;65.61
216;HTU21D;45701;48.81287245;9.14186865;2022-10-13T13:01:59;18.15;63.71
216;HTU21D;45701;48.81287245;9.14186865;2022-10-13T13:04:42;18.17;63.85
216;HTU21D;45701;48.81287245;9.14186865;2022-10-13T13:07:28;18.29;63.78
216;HTU21D;45701;48.81287245;9.14186865;2022-10-13T13:10:16;18.30;63.20
216;HTU21D;45701;48.81287245;9.14186865;2022-10-13T13:12:43;17.94;62.44
216;HTU21D;45701;48.81287245;9.14186865;2022-10-13T13:15:29;17.79;64.36
216;HTU21D;45701;48.81287245;9.14186865;2022-10-13T13:18:31;17.75;65.49
216;HTU21D;45701;48.81287245;9.14186865;2022-10-13T13:21:03;17.67;65.88
216;HTU21D;45701;48.81287245;9.14186865;2022-10-13T13:23:32;17.65;64.65
216;HTU21D;45701;48.81287245;9.14186865;2022-10-13T13:26:09;17.82;65.21
216;HTU21D;45701;48.81287245;9.14186865;2022-10-13T13:28:36;17.84;65.31
216;HTU21D;45701;48.81287245;9.14186865;2022-10-13T13:31:03;17.83;66.83
216;HTU21D;45701;48.81287245;9.14186865;2022-10-13T13:33:30;17.87;65.61
216;HTU21D;45701;48.81287245;9.14186865;2022-10-13T13:35:57;17.78;64.04
216;HTU21D;45701;48.81287245;9.14186865;2022-10-13T13:38:24;17.63;65.47
216;HTU21D;45701;48.81287245;9.14186865;2022-10-13T13:40:52;17.65;66.17
216;HTU21D;45701;48.81287245;9.14186865;2022-10-13T13:43:19;17.85;66.69
216;HTU21D;45701;48.81287245;9.14186865;2022-10-13T13:45:46;17.83;65.73
216;HTU21D;45701;48.81287245;9.14186865;2022-10-13T13:48:12;17.93;64.51
216;HTU21D;45701;48.81287245;9.14186865;2022-10-13T13:50:39;17.81;63.98
216;HTU21D;45701;48.81287245;9.14186865;2022-10-13T13:53:06;17.76;64.59
216;HTU21D;45701;48.81287245;9.14186865;2022-10-13T13:55:32;17.82;64.47
216;HTU21D;45701;48.81287245;9.14186865;2022-10-13T13:58:03;17.88;66.97
216;HTU21D;45701;48.81287245;9.14186865;2022-10-13T14:00:30;17.90;68.96
216;HTU21D;45701;48.81287245;9.14186865;2022-10-13T14:02:56;17.83;69.07
216;HTU21D;45701;48.81287245;9.14186865;2022-10-13T14:05:23;17.64;67.67